createdAt,value
2022-12-11T00:02:26.496Z,101023.03
2022-12-11T00:04:56.543Z,101020.47
2022-12-11T00:07:30.331Z,101021.41
2022-12-11T00:10:05.033Z,101022.22
2022-12-11T00:12:34.421Z,101022.31
2022-12-11T00:15:02.013Z,101018.06
2022-12-11T00:17:41.503Z,101017.84
2022-12-11T00:20:14.976Z,101022.22
2022-12-11T00:22:44.817Z,101029.88
2022-12-11T00:25:16.669Z,101021.31
2022-12-11T00:27:49.860Z,101027.22
2022-12-11T00:30:20.007Z,101009.16
2022-12-11T00:32:55.102Z,101019.41
2022-12-11T00:35:25.482Z,101021.00
2022-12-11T00:37:55.642Z,101021.84
2022-12-11T00:40:23.662Z,101009.69
2022-12-11T00:43:00.201Z,101020.91
2022-12-11T00:45:55.784Z,101015.81
2022-12-11T00:48:23.073Z,101020.19
2022-12-11T00:50:51.670Z,101017.72
2022-12-11T00:53:26.490Z,101009.91
2022-12-11T00:55:56.594Z,101010.06
2022-12-11T00:58:25.420Z,101008.38
2022-12-11T01:00:58.827Z,101010.06
2022-12-11T01:03:25.804Z,101023.03
2022-12-11T01:06:04.965Z,101017.75
2022-12-11T01:08:35.433Z,101016.00
2022-12-11T01:11:09.271Z,101015.16
2022-12-11T01:13:36.854Z,101015.97
2022-12-11T01:16:15.389Z,101010.94
2022-12-11T01:18:50.061Z,101013.44
2022-12-11T01:21:50.251Z,101006.56
2022-12-11T01:27:35.895Z,101020.31
2022-12-11T01:30:10.004Z,101015.00
2022-12-11T01:32:41.178Z,101014.25
2022-12-11T01:35:10.632Z,101017.53
2022-12-11T01:40:35.681Z,101020.75
2022-12-11T01:43:36.001Z,101029.28
2022-12-11T01:46:06.207Z,101016.22
2022-12-11T01:48:42.451Z,101013.56
2022-12-11T01:51:21.264Z,101009.47
2022-12-11T01:54:21.667Z,101024.09
2022-12-11T01:57:05.380Z,101031.72
2022-12-11T01:59:36.751Z,101028.91
2022-12-11T02:02:26.254Z,101030.66
2022-12-11T02:05:00.972Z,101020.31
2022-12-11T02:08:01.090Z,101018.59
2022-12-11T02:11:20.019Z,101028.19
2022-12-11T02:14:30.554Z,101023.81
2022-12-11T02:17:15.780Z,101026.38
2022-12-11T02:20:28.925Z,101027.28
2022-12-11T02:23:21.727Z,101022.16
2022-12-11T02:26:05.485Z,101024.72
2022-12-11T02:28:40.447Z,101017.72
2022-12-11T02:31:14.251Z,101017.66
2022-12-11T02:33:51.971Z,101015.75
2022-12-11T02:36:30.668Z,101025.22
2022-12-11T02:39:06.431Z,101012.88
2022-12-11T02:41:39.657Z,101016.41
2022-12-11T02:44:09.332Z,101012.97
2022-12-11T02:46:39.852Z,101020.63
2022-12-11T02:49:11.600Z,101017.13
2022-12-11T02:51:44.999Z,101008.31
2022-12-11T02:54:21.670Z,101004.00
2022-12-11T02:56:59.922Z,101000.34
2022-12-11T02:59:39.310Z,101002.91
2022-12-11T03:02:06.769Z,101011.41
2022-12-11T03:04:36.761Z,101016.41
2022-12-11T03:07:14.459Z,101017.09
2022-12-11T03:09:46.106Z,101008.09
2022-12-11T03:12:39.339Z,101014.75
2022-12-11T03:15:11.105Z,101017.91
2022-12-11T03:17:45.514Z,101026.31
2022-12-11T03:20:30.078Z,101034.00
2022-12-11T03:23:30.326Z,101019.16
2022-12-11T03:26:19.997Z,101030.22
2022-12-11T03:29:14.426Z,101036.97
2022-12-11T03:31:45.487Z,101025.59
2022-12-11T03:34:32.025Z,101036.66
2022-12-11T03:37:09.326Z,101020.16
2022-12-11T03:39:46.399Z,101030.28
2022-12-11T03:42:16.985Z,101029.34
2022-12-11T03:44:51.600Z,101024.84
2022-12-11T03:47:24.635Z,101024.63
2022-12-11T03:49:54.022Z,101010.69
2022-12-11T03:52:29.487Z,101010.59
2022-12-11T03:55:06.296Z,101017.22
2022-12-11T03:57:36.107Z,101022.22
2022-12-11T04:00:19.497Z,101028.03
2022-12-11T04:03:13.249Z,101022.69
2022-12-11T04:05:55.310Z,101020.72
2022-12-11T04:08:26.052Z,101019.47
2022-12-11T04:11:14.872Z,101007.81
2022-12-11T04:13:41.847Z,101001.56
2022-12-11T04:16:16.029Z,101011.06
2022-12-11T04:19:10.586Z,101009.25
2022-12-11T04:21:56.152Z,101003.94
2022-12-11T04:24:23.021Z,101009.00
2022-12-11T04:26:53.985Z,100999.41
2022-12-11T04:29:21.554Z,100997.56
2022-12-11T04:31:55.180Z,101001.91
2022-12-11T04:34:21.944Z,101000.69
2022-12-11T04:36:51.719Z,100992.06
2022-12-11T04:39:20.233Z,100988.53
2022-12-11T04:41:49.573Z,100986.75
2022-12-11T04:44:26.076Z,101000.41
2022-12-11T04:46:56.039Z,100993.38
2022-12-11T04:49:23.327Z,100992.38
2022-12-11T04:52:15.003Z,100994.66
2022-12-11T08:17:32.857Z,101066.69
2022-12-11T08:27:01.543Z,101061.78
2022-12-11T08:29:56.295Z,101059.38
2022-12-11T08:36:32.229Z,101045.22
2022-12-11T08:56:43.207Z,101027.28
2022-12-11T09:00:08.202Z,101030.06
2022-12-11T15:19:05.010Z,100938.41
2022-12-11T15:22:00.064Z,100939.19
2022-12-11T15:58:06.725Z,100922.44
2022-12-11T17:41:50.101Z,100938.69
2022-12-11T17:44:46.834Z,100944.84
2022-12-11T17:51:40.090Z,100949.06
2022-12-11T18:03:45.544Z,100943.81
2022-12-11T18:06:32.974Z,100931.81
2022-12-11T18:18:04.441Z,100929.28
2022-12-11T18:20:35.897Z,100920.66
2022-12-11T18:23:16.594Z,100930.16
2022-12-11T18:25:46.860Z,100933.50
2022-12-11T18:28:20.020Z,100940.53
2022-12-11T18:30:49.811Z,100945.72
2022-12-11T18:33:20.097Z,100943.03
2022-12-11T18:35:50.355Z,100944.97
2022-12-11T18:38:24.775Z,100938.91
2022-12-11T18:40:55.842Z,100944.16
2022-12-11T18:43:26.209Z,100938.00
2022-12-11T18:45:55.415Z,100945.84
2022-12-11T18:48:26.993Z,100936.41
2022-12-11T18:51:00.246Z,100937.22
2022-12-11T18:53:39.160Z,100933.00
2022-12-11T18:56:10.133Z,100940.84
2022-12-11T20:24:30.029Z,100947.81
2022-12-11T20:46:36.004Z,100947.00
2022-12-11T21:13:49.618Z,100948.91
2022-12-11T21:16:20.142Z,100945.50
2022-12-11T21:19:01.735Z,100943.72
2022-12-11T21:21:43.390Z,100953.19
2022-12-11T21:24:25.447Z,100937.59
2022-12-11T21:27:12.560Z,100941.94
2022-12-11T21:29:40.496Z,100941.06
2022-12-11T21:32:09.216Z,100942.00
2022-12-11T21:34:43.130Z,100935.06
2022-12-11T21:46:20.372Z,100946.34
2022-12-11T21:52:00.659Z,100936.81
2022-12-11T22:58:25.293Z,100952.28
2022-12-11T23:07:35.380Z,100963.31
2022-12-11T23:10:29.369Z,100963.19
2022-12-11T23:37:08.888Z,100958.13
2022-12-11T23:42:53.154Z,100958.00
2022-12-11T23:45:25.514Z,100955.25
2022-12-11T23:47:58.790Z,100957.72
